createdAt,value
2022-09-20T00:01:51.629Z,1.50
2022-09-20T00:04:21.268Z,1.47
2022-09-20T00:06:51.284Z,1.58
2022-09-20T00:09:19.046Z,1.60
2022-09-20T00:11:49.008Z,1.50
2022-09-20T00:14:18.982Z,1.70
2022-09-20T00:16:48.232Z,1.60
2022-09-20T00:19:22.035Z,1.40
2022-09-20T00:21:51.982Z,1.77
2022-09-20T00:24:20.254Z,1.52
2022-09-20T00:26:49.972Z,1.33
2022-09-20T00:29:20.016Z,1.20
2022-09-20T00:31:49.277Z,1.63
2022-09-20T00:34:36.464Z,1.73
2022-09-20T00:37:06.487Z,1.73
2022-09-20T00:39:34.296Z,1.80
2022-09-20T00:42:03.980Z,1.40
2022-09-20T00:44:43.118Z,1.65
2022-09-20T00:47:23.002Z,1.67
2022-09-20T00:49:57.094Z,1.73
2022-09-20T00:52:29.047Z,1.50
2022-09-20T00:55:01.223Z,1.50
2022-09-20T00:57:37.052Z,1.37
2022-09-20T01:00:09.231Z,1.53
2022-09-20T01:02:43.958Z,1.30
2022-09-20T01:05:13.813Z,1.37
2022-09-20T01:07:43.911Z,1.55
2022-09-20T01:10:13.644Z,1.38
2022-09-20T01:12:46.054Z,1.40
2022-09-20T01:15:17.500Z,1.20
2022-09-20T01:17:52.334Z,1.60
2022-09-20T01:20:24.044Z,1.57
2022-09-20T01:23:13.700Z,1.30
2022-09-20T01:26:02.292Z,1.50
2022-09-20T01:28:31.809Z,0.93
2022-09-20T01:31:10.075Z,0.97
2022-09-20T01:33:45.736Z,1.00
2022-09-20T01:36:25.228Z,1.10
2022-09-20T01:39:05.172Z,1.10
2022-09-20T01:41:39.759Z,1.77
2022-09-20T01:44:20.030Z,1.00
2022-09-20T01:46:56.082Z,1.00
2022-09-20T01:49:36.053Z,0.97
2022-09-20T01:52:50.583Z,0.80
2022-09-20T01:55:44.694Z,1.10
2022-09-20T01:59:12.765Z,0.97
2022-09-20T02:02:04.939Z,0.80
2022-09-20T02:05:09.039Z,0.80
2022-09-20T02:07:56.033Z,1.10
2022-09-20T02:11:04.710Z,0.90
2022-09-20T02:13:42.720Z,0.90
2022-09-20T02:16:33.586Z,0.90
2022-09-20T02:19:22.395Z,0.90
2022-09-20T02:22:26.592Z,0.80
2022-09-20T02:25:02.987Z,0.80
2022-09-20T02:27:44.130Z,1.00
2022-09-20T02:30:23.040Z,1.00
2022-09-20T02:33:11.933Z,0.70
2022-09-20T02:35:54.119Z,1.37
2022-09-20T02:38:39.557Z,1.63
2022-09-20T02:41:47.237Z,9.53
2022-09-20T02:44:29.337Z,2.87
2022-09-20T02:47:07.053Z,4.83
2022-09-20T02:49:53.709Z,1.53
2022-09-20T02:52:32.016Z,1.60
2022-09-20T02:55:11.112Z,2.03
2022-09-20T02:57:49.494Z,1.90
2022-09-20T03:00:23.591Z,3.00
2022-09-20T03:03:06.124Z,1.70
2022-09-20T03:05:44.829Z,1.50
2022-09-20T03:08:29.421Z,1.20
2022-09-20T03:11:11.472Z,1.30
2022-09-20T03:13:57.348Z,2.00
2022-09-20T03:16:37.804Z,1.10
2022-09-20T03:19:18.162Z,1.67
2022-09-20T03:22:03.233Z,1.40
2022-09-20T03:24:45.302Z,1.40
2022-09-20T03:27:23.495Z,1.43
2022-09-20T03:30:05.013Z,1.80
2022-09-20T03:32:48.920Z,1.47
2022-09-20T03:35:30.403Z,1.70
2022-09-20T03:38:14.186Z,1.33
2022-09-20T03:41:08.538Z,1.33
2022-09-20T03:43:54.112Z,1.40
2022-09-20T03:46:27.655Z,1.20
2022-09-20T03:49:18.456Z,1.27
2022-09-20T03:51:58.672Z,1.20
2022-09-20T03:54:48.866Z,1.30
2022-09-20T03:57:42.019Z,1.42
2022-09-20T04:00:22.648Z,1.77
2022-09-20T04:05:45.712Z,1.33
2022-09-20T04:11:02.094Z,1.27
2022-09-20T04:13:37.630Z,1.43
2022-09-20T04:16:20.245Z,1.43
2022-09-20T04:18:56.843Z,1.63
2022-09-20T04:21:34.499Z,1.27
2022-09-20T04:24:06.897Z,1.20
2022-09-20T04:26:44.342Z,1.07
2022-09-20T04:29:28.401Z,1.20
2022-09-20T04:32:06.283Z,1.20
2022-09-20T04:34:57.316Z,1.07
2022-09-20T04:37:35.345Z,1.10
2022-09-20T04:40:15.666Z,1.10
2022-09-20T04:43:28.477Z,0.93
2022-09-20T04:46:32.445Z,1.83
2022-09-20T04:49:45.639Z,1.73
2022-09-20T04:52:53.660Z,4.03
2022-09-20T04:55:47.437Z,2.10
2022-09-20T04:58:47.109Z,1.30
2022-09-20T05:01:53.151Z,1.90
2022-09-20T05:05:15.361Z,1.40
2022-09-20T05:08:18.548Z,1.40
2022-09-20T05:11:09.243Z,1.30
2022-09-20T05:13:55.235Z,1.30
2022-09-20T05:16:32.931Z,1.73
2022-09-20T05:19:16.539Z,1.20
2022-09-20T05:22:03.979Z,1.40
2022-09-20T05:24:47.082Z,1.80
2022-09-20T05:27:30.393Z,1.30
2022-09-20T05:30:08.652Z,2.47
2022-09-20T05:32:46.610Z,0.97
2022-09-20T05:35:24.280Z,0.90
2022-09-20T05:38:03.485Z,0.90
2022-09-20T05:40:42.059Z,0.87
2022-09-20T05:43:12.937Z,0.90
2022-09-20T05:45:55.280Z,1.20
2022-09-20T05:48:32.450Z,1.00
2022-09-20T05:51:12.742Z,0.80
2022-09-20T05:54:13.162Z,1.50
2022-09-20T05:56:55.437Z,0.90
2022-09-20T05:59:35.950Z,1.00
2022-09-20T06:04:59.061Z,0.80
2022-09-20T06:07:41.252Z,2.10
2022-09-20T06:10:37.326Z,1.10
2022-09-20T06:13:24.957Z,0.80
2022-09-20T06:16:00.935Z,1.40
2022-09-20T06:18:37.725Z,0.80
2022-09-20T06:21:17.632Z,0.80
2022-09-20T06:23:47.959Z,0.60
2022-09-20T06:26:18.724Z,0.70
2022-09-20T06:28:56.447Z,1.20
2022-09-20T06:31:30.346Z,0.43
2022-09-20T06:34:00.204Z,0.90
2022-09-20T06:37:02.712Z,0.75
2022-09-20T06:39:59.410Z,1.10
2022-09-20T06:42:27.607Z,1.50
2022-09-20T06:44:58.796Z,1.60
2022-09-20T06:47:29.357Z,1.20
2022-09-20T06:52:29.859Z,0.90
2022-09-20T06:54:58.190Z,0.90
2022-09-20T06:57:34.065Z,0.77
2022-09-20T07:00:03.561Z,0.70
2022-09-20T07:02:31.377Z,0.40
2022-09-20T07:04:59.340Z,0.70
2022-09-20T07:07:27.359Z,0.90
2022-09-20T07:09:55.215Z,0.80
2022-09-20T07:12:25.607Z,0.60
2022-09-20T07:14:53.818Z,0.50
2022-09-20T07:17:23.160Z,0.50
2022-09-20T07:19:51.392Z,0.50
2022-09-20T07:22:19.231Z,0.50
2022-09-20T07:24:48.309Z,0.67
2022-09-20T07:27:16.455Z,0.53
2022-09-20T07:29:46.144Z,0.50
2022-09-20T07:32:15.415Z,1.65
2022-09-20T07:34:44.663Z,0.60
2022-09-20T07:37:14.566Z,1.00
2022-09-20T07:39:42.657Z,1.25
2022-09-20T07:42:10.502Z,1.07
2022-09-20T07:44:42.870Z,0.77
2022-09-20T07:47:15.143Z,2.10
2022-09-20T07:49:44.342Z,1.00
2022-09-20T07:52:12.109Z,0.50
2022-09-20T07:54:42.488Z,0.50
2022-09-20T07:57:12.221Z,1.05
2022-09-20T07:59:40.096Z,0.50
2022-09-20T08:02:15.472Z,0.50
2022-09-20T08:04:44.823Z,0.60
2022-09-20T08:07:13.648Z,0.40
2022-09-20T08:09:41.984Z,0.40
2022-09-20T08:15:03.661Z,0.30
2022-09-20T08:17:32.400Z,0.50
2022-09-20T08:20:01.855Z,0.40
2022-09-20T08:22:29.731Z,0.33
2022-09-20T08:24:59.052Z,0.50
2022-09-20T08:27:29.135Z,0.30
2022-09-20T08:29:57.801Z,0.40
2022-09-20T08:32:27.515Z,0.37
2022-09-20T08:34:55.405Z,0.43
2022-09-20T08:37:24.708Z,0.30
2022-09-20T08:39:59.695Z,0.40
2022-09-20T08:42:39.124Z,0.53
2022-09-20T08:45:34.382Z,0.50
2022-09-20T08:48:14.454Z,0.40
2022-09-20T08:50:42.353Z,0.50
2022-09-20T08:53:20.940Z,0.33
2022-09-20T08:55:50.369Z,0.40
2022-09-20T08:58:19.301Z,0.40
2022-09-20T09:00:48.076Z,0.70
2022-09-20T09:03:18.032Z,0.70
2022-09-20T09:05:47.877Z,0.77
2022-09-20T09:08:21.253Z,0.60
2022-09-20T09:10:57.760Z,0.60
2022-09-20T09:13:32.110Z,0.50
2022-09-20T09:16:10.010Z,0.40
2022-09-20T09:18:41.563Z,0.40
2022-09-20T09:21:30.987Z,0.53
2022-09-20T09:24:09.857Z,0.57
2022-09-20T09:26:46.866Z,0.60
2022-09-20T09:29:19.105Z,0.37
2022-09-20T09:31:52.641Z,0.93
2022-09-20T09:34:28.215Z,0.83
2022-09-20T09:37:01.323Z,0.50
2022-09-20T09:39:32.076Z,0.40
2022-09-20T09:42:01.971Z,0.40
2022-09-20T09:44:32.912Z,0.35
2022-09-20T09:47:03.304Z,0.30
2022-09-20T09:49:36.473Z,0.38
2022-09-20T09:52:14.766Z,0.40
2022-09-20T09:54:51.150Z,0.30
2022-09-20T09:57:45.583Z,0.30
2022-09-20T10:00:22.327Z,0.37
2022-09-20T10:03:25.696Z,0.30
2022-09-20T10:06:08.270Z,0.30
2022-09-20T10:08:47.849Z,0.30
2022-09-20T10:11:31.113Z,0.40
2022-09-20T10:14:13.015Z,0.30
2022-09-20T10:16:58.729Z,0.30
2022-09-20T10:19:38.115Z,0.40
2022-09-20T10:22:13.937Z,0.30
2022-09-20T10:24:51.628Z,0.40
2022-09-20T10:27:40.990Z,0.50
2022-09-20T10:30:13.533Z,0.50
2022-09-20T10:32:57.090Z,0.53
2022-09-20T10:35:30.865Z,0.70
2022-09-20T10:38:16.502Z,0.37
2022-09-20T10:41:20.834Z,0.40
2022-09-20T10:44:06.129Z,0.40
2022-09-20T10:46:48.099Z,0.70
2022-09-20T10:49:28.757Z,0.67
2022-09-20T10:52:18.261Z,0.60
2022-09-20T10:55:15.754Z,0.40
2022-09-20T10:58:04.560Z,0.60
2022-09-20T11:00:44.636Z,0.50
2022-09-20T11:03:23.681Z,0.30
2022-09-20T11:06:07.595Z,0.40
2022-09-20T11:08:38.195Z,0.30
2022-09-20T11:11:12.314Z,0.43
2022-09-20T11:13:45.838Z,0.30
2022-09-20T11:16:21.291Z,0.40
2022-09-20T11:18:58.936Z,0.47
2022-09-20T11:21:35.938Z,0.57
2022-09-20T11:24:12.036Z,0.60
2022-09-20T11:26:47.876Z,0.50
2022-09-20T11:29:27.146Z,0.50
2022-09-20T11:32:03.857Z,0.60
2022-09-20T11:34:37.613Z,0.37
2022-09-20T11:37:10.067Z,0.50
2022-09-20T11:39:44.067Z,0.60
2022-09-20T11:42:21.379Z,0.50
2022-09-20T11:44:51.610Z,0.50
2022-09-20T11:47:52.716Z,0.45
2022-09-20T11:50:43.159Z,0.43
2022-09-20T11:53:26.191Z,0.50
2022-09-20T11:56:03.806Z,0.50
2022-09-20T11:58:49.305Z,0.40
2022-09-20T12:01:28.211Z,0.67
2022-09-20T12:04:30.586Z,0.50
2022-09-20T12:07:05.869Z,0.40
2022-09-20T12:09:43.804Z,0.33
2022-09-20T12:12:20.597Z,0.50
2022-09-20T12:14:58.079Z,0.30
2022-09-20T12:18:09.004Z,0.40
2022-09-20T12:21:06.016Z,0.50
2022-09-20T12:24:10.733Z,0.50
2022-09-20T12:26:53.142Z,0.50
2022-09-20T12:29:53.417Z,0.47
2022-09-20T12:32:48.746Z,0.50
2022-09-20T12:35:53.145Z,0.37
2022-09-20T12:38:42.979Z,0.50
2022-09-20T12:41:27.805Z,0.43
2022-09-20T12:44:00.675Z,0.40
2022-09-20T12:46:39.478Z,0.30
2022-09-20T12:50:04.838Z,0.50
2022-09-20T12:52:53.620Z,0.30
2022-09-20T12:55:40.371Z,0.43
2022-09-20T12:58:22.918Z,0.33
2022-09-20T13:01:14.979Z,0.50
2022-09-20T13:03:44.364Z,0.33
2022-09-20T13:06:29.177Z,0.40
2022-09-20T13:09:05.869Z,0.50
2022-09-20T13:11:43.866Z,0.50
2022-09-20T13:14:14.628Z,0.30
2022-09-20T13:16:53.400Z,1.70
2022-09-20T13:19:25.949Z,1.27
2022-09-20T13:21:58.335Z,1.47
2022-09-20T13:24:28.699Z,0.97
2022-09-20T13:27:09.373Z,0.50
2022-09-20T13:29:42.286Z,1.10
2022-09-20T13:32:23.055Z,0.50
2022-09-20T13:35:07.453Z,0.70
2022-09-20T13:37:37.960Z,0.50
2022-09-20T13:42:36.774Z,0.40
2022-09-20T13:45:08.896Z,0.70
2022-09-20T13:47:43.431Z,0.50
2022-09-20T13:50:21.202Z,0.47
2022-09-20T13:52:52.950Z,0.40
2022-09-20T13:55:32.035Z,0.83
2022-09-20T13:58:05.482Z,0.80
2022-09-20T14:00:36.704Z,0.60
2022-09-20T14:03:06.763Z,0.50
2022-09-20T14:05:35.174Z,0.40
2022-09-20T14:08:03.871Z,0.37
2022-09-20T14:10:34.830Z,0.60
2022-09-20T14:13:07.300Z,0.80
2022-09-20T14:15:39.045Z,0.50
2022-09-20T14:18:10.930Z,0.50
2022-09-20T14:20:39.046Z,0.43
2022-09-20T14:23:06.858Z,0.80
2022-09-20T14:25:37.688Z,0.30
2022-09-20T14:28:17.579Z,0.50
2022-09-20T14:30:47.574Z,0.40
2022-09-20T14:33:20.593Z,0.30
2022-09-20T14:35:50.743Z,0.50
2022-09-20T14:38:24.156Z,0.32
2022-09-20T14:40:54.910Z,0.40
2022-09-20T14:43:32.055Z,0.53
2022-09-20T14:46:03.829Z,0.40
2022-09-20T14:48:37.583Z,0.43
2022-09-20T14:51:27.182Z,0.50
2022-09-20T14:54:34.073Z,0.70
2022-09-20T14:57:04.330Z,0.60
2022-09-20T14:59:42.772Z,0.47
2022-09-20T15:02:15.674Z,0.33
2022-09-20T15:04:54.270Z,0.37
2022-09-20T15:07:24.212Z,0.30
2022-09-20T15:09:53.241Z,0.60
2022-09-20T15:12:22.591Z,0.30
2022-09-20T15:14:51.912Z,0.30
2022-09-20T15:17:22.198Z,0.33
2022-09-20T15:19:50.966Z,0.30
2022-09-20T15:22:18.958Z,0.30
2022-09-20T15:24:46.940Z,0.43
2022-09-20T15:27:15.789Z,0.30
2022-09-20T15:29:45.709Z,0.60
2022-09-20T15:32:14.936Z,0.40
2022-09-20T15:34:42.855Z,1.33
2022-09-20T15:37:10.834Z,0.67
2022-09-20T15:39:38.736Z,1.20
2022-09-20T15:42:07.060Z,1.10
2022-09-20T15:44:35.165Z,0.47
2022-09-20T15:47:05.604Z,1.50
2022-09-20T15:49:35.222Z,1.20
2022-09-20T15:52:05.426Z,1.05
2022-09-20T15:54:33.240Z,0.60
2022-09-20T15:57:01.058Z,0.50
2022-09-20T15:59:29.406Z,0.30
2022-09-20T16:01:59.623Z,0.60
2022-09-20T16:04:27.740Z,0.40
2022-09-20T16:06:57.028Z,0.50
2022-09-20T16:09:27.964Z,0.53
2022-09-20T16:11:58.962Z,0.70
2022-09-20T16:14:26.769Z,0.20
2022-09-20T16:16:57.040Z,0.40
2022-09-20T16:19:27.513Z,0.30
2022-09-20T16:21:59.758Z,0.47
2022-09-20T16:24:29.226Z,0.50
2022-09-20T16:26:57.224Z,0.37
2022-09-20T16:29:29.371Z,0.30
2022-09-20T16:32:00.458Z,0.37
2022-09-20T16:34:31.402Z,0.23
2022-09-20T16:37:04.255Z,0.30
2022-09-20T16:39:34.806Z,0.30
2022-09-20T16:44:32.852Z,0.30
2022-09-20T16:47:03.113Z,0.20
2022-09-20T16:49:30.927Z,0.20
2022-09-20T16:52:00.245Z,0.33
2022-09-20T16:54:32.081Z,0.37
2022-09-20T16:57:00.102Z,0.60
2022-09-20T16:59:29.795Z,0.40
2022-09-20T17:01:58.104Z,0.45
2022-09-20T17:04:25.933Z,0.37
2022-09-20T17:06:54.001Z,0.60
2022-09-20T17:09:23.292Z,0.30
2022-09-20T17:11:52.049Z,0.20
2022-09-20T17:14:22.004Z,0.30
2022-09-20T17:16:50.594Z,0.30
2022-09-20T17:19:19.686Z,0.30
2022-09-20T17:21:51.428Z,0.47
2022-09-20T17:24:20.613Z,0.47
2022-09-20T17:26:51.113Z,0.40
2022-09-20T17:31:55.153Z,0.50
2022-09-20T17:34:24.732Z,0.50
2022-09-20T17:36:54.307Z,0.60
2022-09-20T17:39:22.109Z,0.40
2022-09-20T17:41:54.151Z,0.50
2022-09-20T17:44:24.349Z,0.40
2022-09-20T17:46:53.984Z,0.45
2022-09-20T17:49:25.427Z,0.38
2022-09-20T17:51:55.346Z,0.50
2022-09-20T17:54:24.442Z,0.52
2022-09-20T17:56:57.548Z,0.50
2022-09-20T17:59:25.806Z,0.80
2022-09-20T18:01:55.924Z,0.77
2022-09-20T18:04:26.985Z,0.80
2022-09-20T18:06:55.668Z,0.97
2022-09-20T18:09:27.238Z,1.00
2022-09-20T18:11:59.457Z,0.70
2022-09-20T18:14:31.218Z,0.47
2022-09-20T18:17:01.640Z,0.80
2022-09-20T18:22:06.153Z,1.00
2022-09-20T18:24:34.048Z,0.90
2022-09-20T18:27:04.612Z,1.30
2022-09-20T18:32:07.405Z,0.60
2022-09-20T18:34:35.549Z,0.60
2022-09-20T18:37:09.085Z,1.00
2022-09-20T18:39:42.951Z,0.97
2022-09-20T18:44:43.787Z,3.03
2022-09-20T18:47:16.850Z,3.63
2022-09-20T18:49:45.099Z,2.30
2022-09-20T18:52:13.582Z,2.40
2022-09-20T18:54:48.281Z,1.27
2022-09-20T18:57:19.435Z,1.10
2022-09-20T18:59:54.615Z,1.50
2022-09-20T19:02:52.152Z,1.50
2022-09-20T19:05:29.125Z,1.40
2022-09-20T19:08:14.269Z,1.67
2022-09-20T19:10:48.775Z,2.00
2022-09-20T19:13:38.353Z,2.03
2022-09-20T19:16:32.698Z,2.73
2022-09-20T19:19:35.025Z,2.33
2022-09-20T19:22:13.346Z,2.57
2022-09-20T19:25:23.948Z,2.30
2022-09-20T19:27:55.281Z,2.17
2022-09-20T19:30:27.771Z,2.00
2022-09-20T19:33:00.456Z,2.27
2022-09-20T19:35:36.712Z,2.03
2022-09-20T19:38:17.653Z,2.40
2022-09-20T19:40:55.508Z,2.63
2022-09-20T19:43:40.644Z,2.10
2022-09-20T19:46:27.046Z,2.17
2022-09-20T19:49:10.272Z,2.17
2022-09-20T19:51:39.708Z,2.13
2022-09-20T19:54:14.198Z,2.30
2022-09-20T19:56:53.777Z,2.30
2022-09-20T19:59:27.863Z,2.73
2022-09-20T20:01:58.241Z,2.40
2022-09-20T20:04:28.610Z,2.70
2022-09-20T20:07:06.528Z,2.85
2022-09-20T20:09:43.233Z,2.93
2022-09-20T20:12:25.565Z,3.23
2022-09-20T20:15:02.793Z,2.90
2022-09-20T20:17:46.256Z,3.00
2022-09-20T20:20:26.588Z,2.77
2022-09-20T20:23:27.726Z,2.72
2022-09-20T20:26:03.399Z,2.83
2022-09-20T20:28:33.615Z,3.60
2022-09-20T20:31:03.852Z,3.20
2022-09-20T20:33:37.868Z,3.17
2022-09-20T20:36:08.971Z,3.13
2022-09-20T20:38:42.555Z,2.90
2022-09-20T20:41:12.430Z,3.50
2022-09-20T20:43:46.242Z,3.40
2022-09-20T20:46:15.854Z,3.20
2022-09-20T20:48:45.692Z,2.97
2022-09-20T20:51:15.075Z,3.10
2022-09-20T20:53:45.323Z,3.00
2022-09-20T20:56:14.970Z,3.10
2022-09-20T20:58:45.932Z,3.00
2022-09-20T21:01:15.982Z,2.57
2022-09-20T21:03:51.955Z,2.65
2022-09-20T21:06:20.749Z,2.60
2022-09-20T21:08:50.824Z,2.60
2022-09-20T21:11:25.148Z,2.20
2022-09-20T21:13:53.641Z,2.77
2022-09-20T21:16:23.613Z,2.87
2022-09-20T21:18:57.438Z,2.67
2022-09-20T21:21:27.029Z,2.60
2022-09-20T21:23:59.081Z,2.65
2022-09-20T21:26:31.964Z,2.30
2022-09-20T21:29:05.646Z,2.40
2022-09-20T21:31:36.014Z,2.60
2022-09-20T21:34:11.149Z,2.50
2022-09-20T21:36:41.498Z,2.37
2022-09-20T21:39:11.618Z,2.30
2022-09-20T21:41:42.797Z,2.28
2022-09-20T21:44:12.266Z,2.33
2022-09-20T21:46:43.192Z,2.22
2022-09-20T21:49:16.494Z,1.83
2022-09-20T21:51:45.243Z,2.20
2022-09-20T21:54:13.128Z,1.83
2022-09-20T21:56:45.430Z,2.10
2022-09-20T21:59:13.686Z,2.30
2022-09-20T22:01:41.778Z,2.10
2022-09-20T22:04:15.801Z,1.77
2022-09-20T22:06:45.443Z,2.10
2022-09-20T22:09:18.692Z,1.85
2022-09-20T22:11:48.540Z,1.90
2022-09-20T22:14:22.065Z,1.55
2022-09-20T22:16:51.234Z,1.80
2022-09-20T22:19:22.338Z,1.93
2022-09-20T22:21:53.463Z,1.70
2022-09-20T22:24:21.258Z,1.90
2022-09-20T22:26:53.648Z,1.60
2022-09-20T22:29:22.144Z,2.00
2022-09-20T22:31:50.715Z,1.77
2022-09-20T22:34:28.231Z,1.50
2022-09-20T22:36:56.129Z,1.90
2022-09-20T22:39:23.933Z,1.60
2022-09-20T22:41:56.303Z,1.47
2022-09-20T22:44:24.096Z,1.60
2022-09-20T22:46:51.930Z,1.33
2022-09-20T22:49:23.854Z,1.90
2022-09-20T22:54:20.772Z,1.63
2022-09-20T22:56:52.855Z,1.47
2022-09-20T22:59:20.656Z,1.90
2022-09-20T23:01:49.325Z,1.50
2022-09-20T23:04:25.390Z,1.60
2022-09-20T23:06:55.695Z,1.70
2022-09-20T23:09:30.279Z,1.83
2022-09-20T23:11:58.122Z,1.40
2022-09-20T23:14:28.181Z,1.53
2022-09-20T23:16:57.858Z,1.65
2022-09-20T23:19:25.733Z,1.30
2022-09-20T23:21:56.836Z,1.40
2022-09-20T23:24:30.235Z,1.43
2022-09-20T23:27:00.252Z,1.58
2022-09-20T23:29:28.466Z,1.50
2022-09-20T23:31:56.444Z,1.33
2022-09-20T23:34:26.538Z,1.30
2022-09-20T23:36:59.534Z,1.80
2022-09-20T23:39:27.918Z,1.63
2022-09-20T23:41:55.693Z,1.30
2022-09-20T23:44:27.726Z,1.40
2022-09-20T23:46:55.594Z,1.40
2022-09-20T23:49:23.449Z,1.50
2022-09-20T23:51:55.384Z,1.60
2022-09-20T23:54:24.591Z,1.40
2022-09-20T23:56:52.644Z,1.40
2022-09-20T23:59:25.092Z,1.40
